createdAt,value
2022-08-20T00:02:11.839Z,99993.00
2022-08-20T00:04:41.489Z,99994.00
2022-08-20T00:07:09.286Z,99991.00
2022-08-20T00:09:37.154Z,100003.00
2022-08-20T00:12:06.634Z,100008.00
2022-08-20T00:14:35.619Z,100016.00
2022-08-20T00:17:04.949Z,100009.00
2022-08-20T00:19:32.863Z,100003.00
2022-08-20T00:22:00.870Z,100001.00
2022-08-20T00:24:28.730Z,100006.00
2022-08-20T00:26:56.559Z,100012.00
2022-08-20T00:29:24.445Z,100006.00
2022-08-20T00:31:52.383Z,100007.00
2022-08-20T00:34:20.723Z,99998.00
2022-08-20T00:36:48.571Z,99998.00
2022-08-20T00:39:16.365Z,100001.00
2022-08-20T00:41:44.314Z,100007.00
2022-08-20T00:44:19.763Z,100011.00
2022-08-20T00:46:47.910Z,100015.00
2022-08-20T00:49:22.392Z,100013.00
2022-08-20T00:51:55.795Z,100009.00
2022-08-20T00:54:39.667Z,100016.00
2022-08-20T00:57:12.886Z,100012.00
2022-08-20T00:59:42.220Z,100012.00
2022-08-20T01:02:13.928Z,100009.00
2022-08-20T01:04:46.825Z,100009.00
2022-08-20T01:07:14.623Z,100013.00
2022-08-20T01:09:58.038Z,100014.00
2022-08-20T01:12:29.085Z,100018.00
2022-08-20T01:14:59.730Z,100006.00
2022-08-20T01:17:29.755Z,100006.00
2022-08-20T01:20:08.423Z,100003.00
2022-08-20T01:23:07.801Z,99995.00
2022-08-20T01:26:00.407Z,99993.00
2022-08-20T01:28:41.024Z,99996.00
2022-08-20T01:31:12.103Z,99994.00
2022-08-20T01:33:40.338Z,99997.00
2022-08-20T01:36:10.733Z,99997.00
2022-08-20T01:38:41.111Z,99992.00
2022-08-20T01:42:09.747Z,99990.00
2022-08-20T01:44:39.647Z,99992.00
2022-08-20T01:47:27.082Z,100001.00
2022-08-20T01:50:01.874Z,99997.00
2022-08-20T01:52:48.043Z,99997.00
2022-08-20T01:55:15.836Z,100001.00
2022-08-20T01:57:43.809Z,100004.00
2022-08-20T02:00:20.060Z,100002.00
2022-08-20T02:02:49.580Z,100011.00
2022-08-20T02:05:18.821Z,100004.00
2022-08-20T02:07:47.394Z,100003.00
2022-08-20T02:10:17.867Z,100000.00
2022-08-20T02:12:45.988Z,100001.00
2022-08-20T02:15:14.735Z,99996.00
2022-08-20T02:17:44.855Z,100003.00
2022-08-20T02:20:20.081Z,99992.00
2022-08-20T02:22:58.819Z,99997.00
2022-08-20T02:25:30.053Z,100000.00
2022-08-20T02:28:07.021Z,100004.00
2022-08-20T02:30:40.278Z,100014.00
2022-08-20T02:33:11.224Z,100015.00
2022-08-20T02:35:40.143Z,100020.00
2022-08-20T02:38:08.817Z,100015.00
2022-08-20T02:40:37.782Z,100019.00
2022-08-20T02:43:06.226Z,100017.00
2022-08-20T02:45:43.705Z,100020.00
2022-08-20T02:48:21.064Z,100020.00
2022-08-20T02:50:57.073Z,100029.00
2022-08-20T02:53:26.379Z,100024.00
2022-08-20T02:55:54.482Z,100023.00
2022-08-20T02:58:23.215Z,100027.00
2022-08-20T03:00:51.123Z,100031.00
2022-08-20T03:03:22.972Z,100027.00
2022-08-20T03:05:55.915Z,100024.00
2022-08-20T03:08:24.382Z,100024.00
2022-08-20T03:10:52.714Z,100027.00
2022-08-20T03:13:21.160Z,100023.00
2022-08-20T03:15:58.424Z,100025.00
2022-08-20T03:19:23.894Z,100025.00
2022-08-20T03:21:52.135Z,100030.00
2022-08-20T03:24:20.118Z,100027.00
2022-08-20T03:26:48.059Z,100033.00
2022-08-20T03:29:16.029Z,100023.00
2022-08-20T03:31:43.776Z,100026.00
2022-08-20T03:34:12.087Z,100021.00
2022-08-20T03:36:39.941Z,100015.00
2022-08-20T03:39:13.496Z,100017.00
2022-08-20T03:41:41.351Z,100017.00
2022-08-20T03:44:10.320Z,100023.00
2022-08-20T03:46:39.690Z,100022.00
2022-08-20T03:49:07.611Z,100014.00
2022-08-20T03:51:58.253Z,100026.00
2022-08-20T03:54:23.221Z,100020.00
2022-08-20T03:56:51.023Z,100009.00
2022-08-20T03:59:19.012Z,100018.00
2022-08-20T04:01:47.300Z,100014.00
2022-08-20T04:04:15.937Z,100023.00
2022-08-20T04:06:43.814Z,100030.00
2022-08-20T04:09:12.519Z,100033.00
2022-08-20T04:11:41.428Z,100030.00
2022-08-20T04:14:11.180Z,100036.00
2022-08-20T04:16:40.711Z,100033.00
2022-08-20T04:19:09.449Z,100033.00
2022-08-20T04:21:37.653Z,100038.00
2022-08-20T04:24:06.535Z,100030.00
2022-08-20T04:26:36.704Z,100036.00
2022-08-20T04:29:05.396Z,100033.00
2022-08-20T04:31:34.084Z,100037.00
2022-08-20T04:34:08.101Z,100035.00
2022-08-20T04:36:36.452Z,100035.00
2022-08-20T04:39:05.427Z,100045.00
2022-08-20T04:41:33.338Z,100039.00
2022-08-20T04:44:02.233Z,100046.00
2022-08-20T04:46:31.990Z,100040.00
2022-08-20T04:49:01.153Z,100046.00
2022-08-20T04:51:29.398Z,100048.00
2022-08-20T04:53:59.899Z,100048.00
2022-08-20T04:56:29.902Z,100045.00
2022-08-20T04:59:00.784Z,100051.00
2022-08-20T05:01:29.486Z,100050.00
2022-08-20T05:03:58.689Z,100052.00
2022-08-20T05:06:30.308Z,100052.00
2022-08-20T05:08:59.976Z,100051.00
2022-08-20T05:11:35.391Z,100044.00
2022-08-20T05:14:05.923Z,100051.00
2022-08-20T05:16:39.643Z,100051.00
2022-08-20T05:19:09.837Z,100052.00
2022-08-20T05:21:37.982Z,100059.00
2022-08-20T05:24:06.947Z,100063.00
2022-08-20T05:26:35.371Z,100062.00
2022-08-20T05:29:05.327Z,100061.00
2022-08-20T05:31:33.927Z,100068.00
2022-08-20T05:34:11.708Z,100068.00
2022-08-20T05:36:41.549Z,100075.00
2022-08-20T05:39:10.508Z,100084.00
2022-08-20T05:41:39.886Z,100077.00
2022-08-20T05:44:14.370Z,100069.00
2022-08-20T05:46:43.773Z,100073.00
2022-08-20T05:49:20.248Z,100082.00
2022-08-20T05:51:48.681Z,100081.00
2022-08-20T05:54:17.052Z,100080.00
2022-08-20T05:56:44.867Z,100087.00
2022-08-20T05:59:14.526Z,100085.00
2022-08-20T06:01:43.175Z,100083.00
2022-08-20T06:04:28.745Z,100087.00
2022-08-20T06:07:02.220Z,100096.00
2022-08-20T06:09:31.899Z,100100.00
2022-08-20T06:12:02.480Z,100106.00
2022-08-20T06:14:30.817Z,100103.00
2022-08-20T06:17:24.043Z,100112.00
2022-08-20T06:19:52.260Z,100121.00
2022-08-20T06:22:23.326Z,100125.00
2022-08-20T06:24:54.341Z,100122.00
2022-08-20T06:27:22.748Z,100130.00
2022-08-20T06:29:51.549Z,100130.00
2022-08-20T06:32:28.768Z,100135.00
2022-08-20T06:35:02.388Z,100132.00
2022-08-20T06:37:32.713Z,100132.00
2022-08-20T06:40:07.520Z,100127.00
2022-08-20T06:42:35.931Z,100127.00
2022-08-20T06:45:07.613Z,100123.00
2022-08-20T06:47:37.211Z,100120.00
2022-08-20T06:50:07.941Z,100115.00
2022-08-20T06:52:52.804Z,100111.00
2022-08-20T06:55:21.733Z,100113.00
2022-08-20T06:57:58.157Z,100115.00
2022-08-20T07:00:26.763Z,100105.00
2022-08-20T07:02:54.560Z,100112.00
2022-08-20T07:05:22.679Z,100117.00
2022-08-20T07:07:51.279Z,100117.00
2022-08-20T07:10:20.909Z,100118.00
2022-08-20T07:12:50.684Z,100114.00
2022-08-20T07:15:21.256Z,100115.00
2022-08-20T07:17:58.779Z,100113.00
2022-08-20T07:20:29.212Z,100116.00
2022-08-20T07:22:57.430Z,100118.00
2022-08-20T07:25:26.403Z,100119.00
2022-08-20T07:27:58.812Z,100114.00
2022-08-20T07:30:55.943Z,100111.00
2022-08-20T07:33:29.153Z,100112.00
2022-08-20T07:36:04.339Z,100111.00
2022-08-20T07:38:33.752Z,100114.00
2022-08-20T07:41:10.242Z,100121.00
2022-08-20T07:43:39.874Z,100119.00
2022-08-20T07:46:09.273Z,100122.00
2022-08-20T07:48:46.327Z,100122.00
2022-08-20T07:51:17.212Z,100125.00
2022-08-20T07:53:46.652Z,100127.00
2022-08-20T07:56:18.029Z,100129.00
2022-08-20T07:58:50.425Z,100136.00
2022-08-20T08:01:30.602Z,100140.00
2022-08-20T08:03:59.782Z,100144.00
2022-08-20T08:06:31.373Z,100146.00
2022-08-20T08:09:07.303Z,100142.00
2022-08-20T08:11:38.284Z,100145.00
2022-08-20T08:14:07.508Z,100143.00
2022-08-20T08:16:36.332Z,100147.00
2022-08-20T08:19:07.080Z,100151.00
2022-08-20T08:21:35.013Z,100157.00
2022-08-20T08:24:03.446Z,100157.00
2022-08-20T08:26:31.557Z,100151.00
2022-08-20T08:28:59.461Z,100160.00
2022-08-20T08:31:27.493Z,100156.00
2022-08-20T08:33:55.784Z,100160.00
2022-08-20T08:36:24.942Z,100163.00
2022-08-20T08:38:54.184Z,100161.00
2022-08-20T08:41:32.452Z,100160.00
2022-08-20T08:44:13.195Z,100172.00
2022-08-20T08:46:43.788Z,100169.00
2022-08-20T08:49:15.559Z,100173.00
2022-08-20T08:52:04.783Z,100177.00
2022-08-20T08:54:35.260Z,100184.00
2022-08-20T08:57:03.291Z,100177.00
2022-08-20T08:59:52.154Z,100179.00
2022-08-20T09:02:26.265Z,100177.00
2022-08-20T09:04:56.832Z,100176.00
2022-08-20T09:07:27.240Z,100175.00
2022-08-20T09:09:55.809Z,100178.00
2022-08-20T09:12:28.017Z,100183.00
2022-08-20T09:14:56.141Z,100181.00
2022-08-20T09:17:24.447Z,100187.00
2022-08-20T09:19:52.592Z,100188.00
2022-08-20T09:22:23.182Z,100189.00
2022-08-20T09:24:51.663Z,100188.00
2022-08-20T09:27:19.998Z,100188.00
2022-08-20T09:29:48.428Z,100189.00
2022-08-20T09:32:20.926Z,100192.00
2022-08-20T09:34:59.377Z,100190.00
2022-08-20T09:37:36.742Z,100191.00
2022-08-20T09:40:06.465Z,100188.00
2022-08-20T09:42:41.027Z,100199.00
2022-08-20T09:45:11.048Z,100198.00
2022-08-20T09:47:46.841Z,100192.00
2022-08-20T09:50:28.542Z,100200.00
2022-08-20T09:52:58.280Z,100189.00
2022-08-20T09:55:42.287Z,100195.00
2022-08-20T09:58:21.934Z,100195.00
2022-08-20T10:00:49.899Z,100197.00
2022-08-20T10:03:18.173Z,100199.00
2022-08-20T10:05:46.271Z,100195.00
2022-08-20T10:08:14.508Z,100195.00
2022-08-20T10:10:42.580Z,100210.00
2022-08-20T10:13:13.252Z,100199.00
2022-08-20T10:15:43.312Z,100209.00
2022-08-20T10:18:12.563Z,100205.00
2022-08-20T10:20:40.944Z,100203.00
2022-08-20T10:23:09.014Z,100200.00
2022-08-20T10:25:37.112Z,100206.00
2022-08-20T10:28:06.528Z,100203.00
2022-08-20T10:30:35.051Z,100207.00
2022-08-20T10:33:02.999Z,100209.00
2022-08-20T10:35:31.273Z,100208.00
2022-08-20T10:37:59.348Z,100198.00
2022-08-20T10:40:27.395Z,100206.00
2022-08-20T10:42:55.141Z,100203.00
2022-08-20T10:45:25.426Z,100193.00
2022-08-20T10:47:53.596Z,100193.00
2022-08-20T10:50:21.917Z,100200.00
2022-08-20T10:52:49.878Z,100193.00
2022-08-20T10:55:19.301Z,100195.00
2022-08-20T10:57:47.668Z,100198.00
2022-08-20T11:00:17.819Z,100197.00
2022-08-20T11:02:45.854Z,100195.00
2022-08-20T11:05:13.900Z,100196.00
2022-08-20T11:07:50.602Z,100196.00
2022-08-20T11:10:27.080Z,100205.00
2022-08-20T11:12:55.593Z,100203.00
2022-08-20T11:15:23.426Z,100195.00
2022-08-20T11:17:51.407Z,100196.00
2022-08-20T11:20:21.547Z,100197.00
2022-08-20T11:22:49.523Z,100196.00
2022-08-20T11:25:17.694Z,100195.00
2022-08-20T11:27:47.868Z,100200.00
2022-08-20T11:30:26.991Z,100202.00
2022-08-20T11:32:59.449Z,100197.00
2022-08-20T11:35:49.183Z,100199.00
2022-08-20T11:38:17.732Z,100191.00
2022-08-20T11:40:47.061Z,100191.00
2022-08-20T11:43:17.008Z,100190.00
2022-08-20T11:45:53.224Z,100195.00
2022-08-20T11:48:21.495Z,100193.00
2022-08-20T11:50:49.914Z,100191.00
2022-08-20T11:53:18.080Z,100195.00
2022-08-20T11:55:45.893Z,100192.00
2022-08-20T11:58:13.842Z,100194.00
2022-08-20T12:00:42.220Z,100200.00
2022-08-20T12:03:11.582Z,100193.00
2022-08-20T12:05:45.085Z,100193.00
2022-08-20T12:08:27.704Z,100193.00
2022-08-20T12:11:01.640Z,100191.00
2022-08-20T12:13:47.393Z,100194.00
2022-08-20T12:16:18.251Z,100186.00
2022-08-20T12:18:47.074Z,100184.00
2022-08-20T12:21:15.279Z,100184.00
2022-08-20T12:23:43.488Z,100193.00
2022-08-20T12:26:11.293Z,100188.00
2022-08-20T12:28:39.183Z,100186.00
2022-08-20T12:31:07.227Z,100186.00
2022-08-20T12:33:35.194Z,100193.00
2022-08-20T12:36:03.139Z,100190.00
2022-08-20T12:38:30.967Z,100188.00
2022-08-20T12:40:58.731Z,100183.00
2022-08-20T12:43:26.610Z,100181.00
2022-08-20T12:45:54.585Z,100176.00
2022-08-20T12:48:22.387Z,100172.00
2022-08-20T12:50:50.546Z,100179.00
2022-08-20T12:53:19.065Z,100163.00
2022-08-20T12:55:47.254Z,100165.00
2022-08-20T12:58:15.165Z,100165.00
2022-08-20T13:00:47.469Z,100174.00
2022-08-20T13:03:19.868Z,100167.00
2022-08-20T13:05:47.952Z,100168.00
2022-08-20T13:08:17.763Z,100180.00
2022-08-20T13:10:46.569Z,100182.00
2022-08-20T13:13:17.706Z,100183.00
2022-08-20T13:15:50.058Z,100187.00
2022-08-20T13:18:18.243Z,100194.00
2022-08-20T13:20:46.279Z,100196.00
2022-08-20T13:23:14.270Z,100201.00
2022-08-20T13:25:42.296Z,100197.00
2022-08-20T13:28:10.331Z,100205.00
2022-08-20T13:30:39.364Z,100201.00
2022-08-20T13:33:07.334Z,100200.00
2022-08-20T13:35:35.157Z,100202.00
2022-08-20T13:38:03.045Z,100199.00
2022-08-20T13:40:30.928Z,100203.00
2022-08-20T13:43:03.152Z,100209.00
2022-08-20T13:45:34.132Z,100207.00
2022-08-20T13:48:01.972Z,100203.00
2022-08-20T13:50:29.853Z,100203.00
2022-08-20T13:52:57.772Z,100197.00
2022-08-20T13:55:27.964Z,100213.00
2022-08-20T13:57:57.832Z,100208.00
2022-08-20T14:00:32.260Z,100209.00
2022-08-20T14:03:05.731Z,100208.00
2022-08-20T14:05:34.607Z,100215.00
2022-08-20T14:08:11.873Z,100213.00
2022-08-20T14:10:42.691Z,100215.00
2022-08-20T14:13:15.299Z,100214.00
2022-08-20T14:15:44.951Z,100218.00
2022-08-20T14:18:14.672Z,100213.00
2022-08-20T14:20:45.344Z,100208.00
2022-08-20T14:23:14.503Z,100206.00
2022-08-20T14:25:44.189Z,100214.00
2022-08-20T14:28:25.855Z,100214.00
2022-08-20T14:30:53.997Z,100219.00
2022-08-20T14:33:23.266Z,100212.00
2022-08-20T14:35:51.569Z,100216.00
2022-08-20T14:38:19.569Z,100213.00
2022-08-20T14:40:47.706Z,100206.00
2022-08-20T14:43:15.445Z,100204.00
2022-08-20T14:45:43.455Z,100215.00
2022-08-20T14:48:11.527Z,100226.00
2022-08-20T14:50:39.399Z,100212.00
2022-08-20T14:53:08.301Z,100216.00
2022-08-20T14:55:37.752Z,100219.00
2022-08-20T14:58:10.622Z,100220.00
2022-08-20T15:00:38.802Z,100227.00
2022-08-20T15:03:06.937Z,100219.00
2022-08-20T15:05:39.359Z,100222.00
2022-08-20T15:08:08.258Z,100218.00
2022-08-20T15:10:39.355Z,100230.00
2022-08-20T15:13:07.683Z,100224.00
2022-08-20T15:15:35.608Z,100225.00
2022-08-20T15:18:04.079Z,100227.00
2022-08-20T15:20:33.521Z,100227.00
2022-08-20T15:23:02.066Z,100223.00
2022-08-20T15:25:36.216Z,100221.00
2022-08-20T15:28:07.239Z,100224.00
2022-08-20T15:30:35.621Z,100226.00
2022-08-20T15:33:03.641Z,100231.00
2022-08-20T15:35:32.140Z,100231.00
2022-08-20T15:38:00.421Z,100232.00
2022-08-20T15:40:30.692Z,100237.00
2022-08-20T15:43:00.518Z,100240.00
2022-08-20T15:45:32.128Z,100239.00
2022-08-20T15:48:12.858Z,100237.00
2022-08-20T15:51:10.583Z,100238.00
2022-08-20T15:54:00.214Z,100245.00
2022-08-20T15:56:50.705Z,100252.00
2022-08-20T15:59:37.321Z,100239.00
2022-08-20T16:02:31.871Z,100241.00
2022-08-20T16:05:17.992Z,100236.00
2022-08-20T16:08:27.662Z,100236.00
2022-08-20T16:11:01.920Z,100232.00
2022-08-20T16:13:35.129Z,100232.00
2022-08-20T16:16:04.316Z,100221.00
2022-08-20T16:18:35.686Z,100227.00
2022-08-20T16:21:09.481Z,100228.00
2022-08-20T16:23:41.521Z,100220.00
2022-08-20T16:26:32.762Z,100219.00
2022-08-20T16:29:18.763Z,100214.00
2022-08-20T16:32:14.142Z,100215.00
2022-08-20T16:34:50.656Z,100218.00
2022-08-20T16:37:44.262Z,100222.00
2022-08-20T16:40:23.194Z,100223.00
2022-08-20T16:42:53.534Z,100219.00
2022-08-20T16:45:36.139Z,100224.00
2022-08-20T16:48:07.413Z,100221.00
2022-08-20T16:50:39.560Z,100229.00
2022-08-20T16:53:14.010Z,100236.00
2022-08-20T16:55:42.276Z,100233.00
2022-08-20T16:58:10.308Z,100236.00
2022-08-20T17:00:45.046Z,100231.00
2022-08-20T17:03:31.601Z,100227.00
2022-08-20T17:06:17.712Z,100229.00
2022-08-20T17:08:49.904Z,100232.00
2022-08-20T17:11:25.122Z,100231.00
2022-08-20T17:14:08.283Z,100231.00
2022-08-20T17:16:48.209Z,100232.00
2022-08-20T17:19:34.488Z,100236.00
2022-08-20T17:22:11.185Z,100231.00
2022-08-20T17:24:40.382Z,100236.00
2022-08-20T17:27:15.904Z,100236.00
2022-08-20T17:29:52.557Z,100236.00
2022-08-20T17:32:28.933Z,100237.00
2022-08-20T17:35:00.107Z,100241.00
2022-08-20T17:37:42.103Z,100242.00
2022-08-20T17:40:19.796Z,100245.00
2022-08-20T17:43:05.162Z,100235.00
2022-08-20T17:45:46.043Z,100233.00
2022-08-20T17:48:23.886Z,100244.00
2022-08-20T17:50:52.735Z,100234.00
2022-08-20T17:53:24.814Z,100235.00
2022-08-20T17:56:01.851Z,100236.00
2022-08-20T17:58:54.398Z,100243.00
2022-08-20T18:01:24.603Z,100249.00
2022-08-20T18:03:53.603Z,100241.00
2022-08-20T18:06:51.962Z,100247.00
2022-08-20T18:09:58.423Z,100250.00
2022-08-20T18:13:02.163Z,100243.00
2022-08-20T18:15:45.822Z,100249.00
2022-08-20T18:18:27.078Z,100262.00
2022-08-20T18:21:30.071Z,100262.00
2022-08-20T18:24:03.153Z,100263.00
2022-08-20T18:26:45.573Z,100264.00
2022-08-20T18:29:14.591Z,100265.00
2022-08-20T18:31:48.846Z,100271.00
2022-08-20T18:34:22.427Z,100270.00
2022-08-20T18:37:02.738Z,100274.00
2022-08-20T18:39:32.423Z,100279.00
2022-08-20T18:42:03.333Z,100291.00
2022-08-20T18:44:37.271Z,100292.00
2022-08-20T18:47:06.782Z,100296.00
2022-08-20T18:49:39.604Z,100292.00
2022-08-20T18:52:26.992Z,100290.00
2022-08-20T18:54:57.490Z,100290.00
2022-08-20T18:57:35.633Z,100290.00
2022-08-20T19:00:15.010Z,100285.00
2022-08-20T19:03:10.681Z,100289.00
2022-08-20T19:05:40.735Z,100285.00
2022-08-20T19:08:08.905Z,100290.00
2022-08-20T19:10:57.869Z,100286.00
2022-08-20T19:13:40.895Z,100286.00
2022-08-20T19:16:31.247Z,100285.00
2022-08-20T19:18:59.278Z,100287.00
2022-08-20T19:21:32.167Z,100291.00
2022-08-20T19:24:03.400Z,100287.00
2022-08-20T19:26:33.561Z,100290.00
2022-08-20T19:29:02.556Z,100288.00
2022-08-20T19:31:33.686Z,100284.00
2022-08-20T19:34:21.690Z,100285.00
2022-08-20T19:37:35.434Z,100283.00
2022-08-20T19:40:22.025Z,100289.00
2022-08-20T19:42:52.785Z,100287.00
2022-08-20T19:45:34.643Z,100293.00
2022-08-20T19:48:08.736Z,100286.00
2022-08-20T19:50:55.451Z,100290.00
2022-08-20T19:53:30.279Z,100288.00
2022-08-20T19:56:22.495Z,100293.00
2022-08-20T19:59:08.754Z,100289.00
2022-08-20T20:01:37.160Z,100288.00
2022-08-20T20:04:15.114Z,100288.00
2022-08-20T20:06:46.556Z,100282.00
2022-08-20T20:09:26.703Z,100292.00
2022-08-20T20:12:00.180Z,100290.00
2022-08-20T20:14:36.152Z,100296.00
2022-08-20T20:17:09.827Z,100290.00
2022-08-20T20:20:38.869Z,100283.00
2022-08-20T20:23:38.785Z,100288.00
2022-08-20T20:26:20.049Z,100281.00
2022-08-20T20:28:51.609Z,100284.00
2022-08-20T20:31:31.357Z,100294.00
2022-08-20T20:34:13.424Z,100298.00
2022-08-20T20:36:46.666Z,100293.00
2022-08-20T20:39:44.795Z,100297.00
2022-08-20T20:42:26.755Z,100303.00
2022-08-20T20:44:57.608Z,100306.00
2022-08-20T20:47:32.470Z,100309.00
2022-08-20T20:50:09.771Z,100312.00
2022-08-20T20:52:49.263Z,100304.00
2022-08-20T20:55:34.282Z,100303.00
2022-08-20T20:58:02.590Z,100302.00
2022-08-20T21:00:33.107Z,100310.00
2022-08-20T21:03:03.958Z,100313.00
2022-08-20T21:05:40.325Z,100305.00
2022-08-20T21:08:11.993Z,100302.00
2022-08-20T21:10:41.873Z,100312.00
2022-08-20T21:13:10.732Z,100313.00
2022-08-20T21:15:39.824Z,100308.00
2022-08-20T21:18:09.348Z,100312.00
2022-08-20T21:20:37.850Z,100305.00
2022-08-20T21:23:08.749Z,100312.00
2022-08-20T21:25:36.808Z,100315.00
2022-08-20T21:28:05.183Z,100314.00
2022-08-20T21:30:34.068Z,100308.00
2022-08-20T21:33:02.044Z,100312.00
2022-08-20T21:35:31.660Z,100317.00
2022-08-20T21:37:59.578Z,100320.00
2022-08-20T21:40:28.285Z,100331.00
2022-08-20T21:42:59.251Z,100335.00
2022-08-20T21:45:28.704Z,100344.00
2022-08-20T21:47:57.840Z,100356.00
2022-08-20T21:50:26.381Z,100356.00
2022-08-20T21:52:59.194Z,100350.00
2022-08-20T21:55:29.027Z,100358.00
2022-08-20T21:57:57.662Z,100354.00
2022-08-20T22:00:47.397Z,100355.00
2022-08-20T22:03:16.329Z,100356.00
2022-08-20T22:05:48.640Z,100349.00
2022-08-20T22:08:18.633Z,100354.00
2022-08-20T22:10:46.918Z,100350.00
2022-08-20T22:13:14.919Z,100352.00
2022-08-20T22:15:43.811Z,100346.00
2022-08-20T22:18:11.727Z,100344.00
2022-08-20T22:20:40.934Z,100344.00
2022-08-20T22:23:12.069Z,100336.00
2022-08-20T22:25:43.117Z,100342.00
2022-08-20T22:28:10.980Z,100338.00
2022-08-20T22:30:42.201Z,100343.00
2022-08-20T22:33:14.391Z,100344.00
2022-08-20T22:35:49.688Z,100343.00
2022-08-20T22:38:18.534Z,100344.00
2022-08-20T22:40:48.944Z,100344.00
2022-08-20T22:43:16.941Z,100338.00
2022-08-20T22:45:49.015Z,100340.00
2022-08-20T22:48:21.423Z,100338.00
2022-08-20T22:50:50.240Z,100341.00
2022-08-20T22:53:21.605Z,100343.00
2022-08-20T22:55:50.003Z,100346.00
2022-08-20T22:58:19.411Z,100352.00
2022-08-20T23:00:58.693Z,100354.00
2022-08-20T23:03:40.214Z,100343.00
2022-08-20T23:06:09.120Z,100351.00
2022-08-20T23:08:42.254Z,100344.00
2022-08-20T23:11:13.236Z,100348.00
2022-08-20T23:13:41.020Z,100338.00
2022-08-20T23:16:08.905Z,100336.00
2022-08-20T23:18:36.731Z,100322.00
2022-08-20T23:21:05.166Z,100330.00
2022-08-20T23:23:33.037Z,100330.00
2022-08-20T23:26:01.509Z,100325.00
2022-08-20T23:28:32.078Z,100318.00
2022-08-20T23:31:00.081Z,100317.00
2022-08-20T23:33:27.895Z,100315.00
2022-08-20T23:35:56.103Z,100319.00
2022-08-20T23:38:23.864Z,100320.00
2022-08-20T23:40:51.649Z,100322.00
2022-08-20T23:43:19.588Z,100317.00
2022-08-20T23:45:47.784Z,100314.00
2022-08-20T23:48:15.969Z,100325.00
2022-08-20T23:50:43.973Z,100315.00
2022-08-20T23:53:14.277Z,100300.00
2022-08-20T23:55:45.056Z,100306.00
2022-08-20T23:58:13.065Z,100306.00
